Pagrindinis puslapis
METAR-TAF:

METAR-TAF

Oro uostai :

White Mountain, Aliaska, Jungtinės Amerikos Valstijos

platuma: 64-41-21N, ilguma: 163-24-46W, Aukštis: 81 m

Dabartinis oras

Ataskaita buvo paskelbta 57 minutes, ne 07:56 UTC
Vėjas 11 kt iš Šiaurės
Temperatūra 11°C
Drėgmė 71%
Slėgis 1005 hPa
Matomumas: 16.1 km
Išsisklaidę debesys ne aukštis 8500 ft
Išsisklaidę debesys ne aukštis 11000 ft

METAR: PAWM 160756Z AUTO 35011KT 10SM SCT085 SCT110 11/06 A2969 RMK AO2 SLP056 T01110061

Laikas: 00:53 (08:53 UTC)


TAF: trūkstamas

Orai ataskaitas ir orų prognozės (METAR, TAF).

turimą stotys yra geltonos ir raudonos taškus žemėlapyje.

Perkelti pele per norėdami pamatyti stoties vardą.

Tada spustelėkite, norėdami matyti oro stebėjimo ir prognozės.

Norėdami pakeisti žemėlapį: spustelėkite ant žalios mygtukų su juodo kryžiaus žemyn,; žalią mygtuką su brūkšneliu, jei norite nutolinti; arba žalių rodyklių gretimoms žemėlapius.


METAR-TAF: